sensor_id;sensor_type;location;lat;lon;timestamp;temperature;humidity
14105;DHT22;7130;52.484;4.766;2022-08-19T16:46:33;28.70;99.90
14105;DHT22;7130;52.484;4.766;2022-08-19T16:51:28;29.30;99.90
14105;DHT22;7130;52.484;4.766;2022-08-19T16:53:58;28.30;99.90
14105;DHT22;7130;52.484;4.766;2022-08-19T16:56:24;28.80;99.90
14105;DHT22;7130;52.484;4.766;2022-08-19T16:58:53;27.80;99.90
14105;DHT22;7130;52.484;4.766;2022-08-19T17:01:19;27.80;99.90
14105;DHT22;7130;52.484;4.766;2022-08-19T17:03:48;27.50;99.90
14105;DHT22;7130;52.484;4.766;2022-08-19T17:06:17;28.30;99.90
14105;DHT22;7130;52.484;4.766;2022-08-19T17:16:04;27.20;99.90
14105;DHT22;7130;52.484;4.766;2022-08-19T17:18:31;27.50;99.90
14105;DHT22;7130;52.484;4.766;2022-08-19T17:20:59;26.80;99.90
14105;DHT22;7130;52.484;4.766;2022-08-19T17:40:43;25.60;99.90
14105;DHT22;7130;52.484;4.766;2022-08-19T17:43:12;25.60;99.90
14105;DHT22;7130;52.484;4.766;2022-08-19T17:45:40;26.20;99.90
14105;DHT22;7130;52.484;4.766;2022-08-19T17:48:07;25.70;99.90
14105;DHT22;7130;52.484;4.766;2022-08-19T17:50:35;25.40;99.90
14105;DHT22;7130;52.484;4.766;2022-08-19T17:53:01;25.50;99.90
14105;DHT22;7130;52.484;4.766;2022-08-19T17:55:28;25.70;99.90
14105;DHT22;7130;52.484;4.766;2022-08-19T17:57:57;25.10;99.90
14105;DHT22;7130;52.484;4.766;2022-08-19T18:00:24;25.40;99.90
14105;DHT22;7130;52.484;4.766;2022-08-19T18:07:48;24.80;99.90
14105;DHT22;7130;52.484;4.766;2022-08-19T18:10:19;24.80;99.90
14105;DHT22;7130;52.484;4.766;2022-08-19T18:12:49;24.80;99.90
14105;DHT22;7130;52.484;4.766;2022-08-19T18:37:26;24.60;99.90
14105;DHT22;7130;52.484;4.766;2022-08-19T18:39:55;24.50;99.90
14105;DHT22;7130;52.484;4.766;2022-08-19T18:45:23;24.00;99.90
14105;DHT22;7130;52.484;4.766;2022-08-19T18:48:08;24.10;99.90
14105;DHT22;7130;52.484;4.766;2022-08-19T18:50:52;23.70;99.90
14105;DHT22;7130;52.484;4.766;2022-08-19T18:53:20;24.20;99.90
14105;DHT22;7130;52.484;4.766;2022-08-19T18:55:46;25.00;99.90
14105;DHT22;7130;52.484;4.766;2022-08-19T18:58:18;24.00;99.90
14105;DHT22;7130;52.484;4.766;2022-08-19T19:00:46;24.10;99.90
14105;DHT22;7130;52.484;4.766;2022-08-19T19:03:13;24.40;99.90
14105;DHT22;7130;52.484;4.766;2022-08-19T19:05:39;23.90;99.90
14105;DHT22;7130;52.484;4.766;2022-08-19T19:08:06;24.80;99.90
14105;DHT22;7130;52.484;4.766;2022-08-19T19:10:34;24.60;99.90
14105;DHT22;7130;52.484;4.766;2022-08-19T19:13:01;23.50;99.90
14105;DHT22;7130;52.484;4.766;2022-08-19T19:15:27;23.50;99.90
14105;DHT22;7130;52.484;4.766;2022-08-19T19:25:18;23.60;99.90
14105;DHT22;7130;52.484;4.766;2022-08-19T19:27:46;23.50;99.90
14105;DHT22;7130;52.484;4.766;2022-08-19T19:30:14;23.40;99.90
14105;DHT22;7130;52.484;4.766;2022-08-19T19:32:40;23.40;99.90
14105;DHT22;7130;52.484;4.766;2022-08-19T19:40:06;23.40;99.90
14105;DHT22;7130;52.484;4.766;2022-08-19T19:42:33;23.40;99.90
14105;DHT22;7130;52.484;4.766;2022-08-19T19:45:01;22.40;99.90
14105;DHT22;7130;52.484;4.766;2022-08-19T19:47:28;23.50;99.90
14105;DHT22;7130;52.484;4.766;2022-08-19T19:49:55;23.60;99.90
14105;DHT22;7130;52.484;4.766;2022-08-19T19:52:22;23.40;99.90
14105;DHT22;7130;52.484;4.766;2022-08-19T19:54:50;23.30;99.90
14105;DHT22;7130;52.484;4.766;2022-08-19T19:57:18;23.60;99.90
14105;DHT22;7130;52.484;4.766;2022-08-19T19:59:47;24.00;99.90
14105;DHT22;7130;52.484;4.766;2022-08-19T20:02:15;24.50;99.90
